createdAt,value
2018-05-23T00:00:27.109Z,23.56
2018-05-23T00:02:53.608Z,23.52
2018-05-23T00:05:20.191Z,23.56
2018-05-23T00:07:46.598Z,23.50
2018-05-23T00:10:13.291Z,23.51
2018-05-23T00:12:40.452Z,23.52
2018-05-23T00:15:07.156Z,23.51
2018-05-23T00:17:33.624Z,23.48
2018-05-23T00:20:00.651Z,23.47
2018-05-23T00:22:27.291Z,23.48
2018-05-23T00:24:53.674Z,23.45
2018-05-23T00:27:20.604Z,23.46
2018-05-23T00:29:47.411Z,23.39
2018-05-23T00:32:14.148Z,23.32
2018-05-23T00:34:40.514Z,23.36
2018-05-23T00:37:06.879Z,23.37
2018-05-23T00:39:33.358Z,23.43
2018-05-23T00:41:59.962Z,23.42
2018-05-23T00:44:26.534Z,23.41
2018-05-23T00:46:52.903Z,23.44
2018-05-23T00:49:19.257Z,23.32
2018-05-23T00:51:45.883Z,23.35
2018-05-23T00:54:12.364Z,23.42
2018-05-23T00:56:38.735Z,23.39
2018-05-23T00:59:05.697Z,23.35
2018-05-23T01:01:32.318Z,23.41
2018-05-23T01:03:58.719Z,23.32
2018-05-23T01:06:25.160Z,23.28
2018-05-23T01:08:51.523Z,23.17
2018-05-23T01:11:17.953Z,23.19
2018-05-23T01:13:44.343Z,23.05
2018-05-23T01:16:10.816Z,22.99
2018-05-23T01:18:37.344Z,22.98
2018-05-23T01:21:03.704Z,23.00
2018-05-23T01:23:30.060Z,22.88
2018-05-23T01:25:56.402Z,22.93
2018-05-23T01:28:22.936Z,22.96
2018-05-23T01:30:49.481Z,22.92
2018-05-23T01:33:15.864Z,22.96
2018-05-23T01:35:42.206Z,22.83
2018-05-23T01:38:08.586Z,22.86
2018-05-23T01:40:35.060Z,22.90
2018-05-23T01:43:01.461Z,22.91
2018-05-23T01:45:27.847Z,22.90
2018-05-23T01:47:54.197Z,22.87
2018-05-23T01:50:20.618Z,22.86
2018-05-23T01:52:46.999Z,22.69
2018-05-23T01:55:13.459Z,22.83
2018-05-23T01:57:39.952Z,22.70
2018-05-23T02:00:06.409Z,22.81
2018-05-23T02:02:32.905Z,22.66
2018-05-23T02:04:59.339Z,22.78
2018-05-23T02:07:25.683Z,22.78
2018-05-23T02:09:52.295Z,22.72
2018-05-23T02:12:19.569Z,22.64
2018-05-23T02:14:45.945Z,22.79
2018-05-23T02:17:12.320Z,22.65
2018-05-23T02:19:38.644Z,22.76
2018-05-23T02:22:05.037Z,22.76
2018-05-23T02:24:31.544Z,22.74
2018-05-23T02:26:58.951Z,22.76
2018-05-23T02:29:25.398Z,22.74
2018-05-23T02:31:51.758Z,22.68
2018-05-23T02:34:18.153Z,22.73
2018-05-23T02:36:45.183Z,22.75
2018-05-23T02:41:43.988Z,22.73
2018-05-23T02:44:10.386Z,22.62
2018-05-23T02:46:37.129Z,22.66
2018-05-23T02:49:03.654Z,22.61
2018-05-23T02:51:29.987Z,22.69
2018-05-23T02:53:56.469Z,22.60
2018-05-23T02:56:22.792Z,22.71
2018-05-23T02:58:49.590Z,22.63
2018-05-23T03:01:16.014Z,22.63
2018-05-23T03:03:42.345Z,22.64
2018-05-23T03:06:08.665Z,22.58
2018-05-23T03:08:35.051Z,22.65
2018-05-23T03:11:01.531Z,22.54
2018-05-23T03:13:28.117Z,22.61
2018-05-23T03:15:54.509Z,22.59
2018-05-23T03:18:20.875Z,22.64
2018-05-23T03:20:47.339Z,22.63
2018-05-23T03:23:13.750Z,22.52
2018-05-23T03:25:40.483Z,22.61
2018-05-23T03:28:06.817Z,22.58
2018-05-23T03:30:33.226Z,22.64
2018-05-23T03:32:59.560Z,22.66
2018-05-23T03:35:26.027Z,22.66
2018-05-23T03:37:52.635Z,22.69
2018-05-23T03:40:19.040Z,22.71
2018-05-23T03:42:45.359Z,22.77
2018-05-23T03:45:11.716Z,22.76
2018-05-23T03:47:38.087Z,22.87
2018-05-23T03:50:04.528Z,22.97
2018-05-23T03:52:30.950Z,22.98
2018-05-23T03:54:57.280Z,23.17
2018-05-23T03:57:23.612Z,23.20
2018-05-23T03:59:49.981Z,23.21
2018-05-23T04:02:16.593Z,23.22
2018-05-23T04:04:43.079Z,23.26
2018-05-23T04:07:09.386Z,23.41
2018-05-23T04:09:35.727Z,23.41
2018-05-23T04:12:02.153Z,23.50
2018-05-23T04:14:28.516Z,23.50
2018-05-23T04:16:54.841Z,23.60
2018-05-23T04:19:21.221Z,23.66
2018-05-23T04:21:47.576Z,23.65
2018-05-23T04:24:14.000Z,23.74
2018-05-23T04:26:40.352Z,23.73
2018-05-23T04:29:06.732Z,23.81
2018-05-23T04:31:33.096Z,23.80
2018-05-23T04:33:59.461Z,23.82
2018-05-23T04:36:25.829Z,23.85
2018-05-23T04:38:52.227Z,23.83
2018-05-23T04:41:18.556Z,23.94
2018-05-23T04:43:44.901Z,23.79
2018-05-23T04:46:11.438Z,24.01
2018-05-23T04:48:37.959Z,23.99
2018-05-23T04:51:04.359Z,24.00
2018-05-23T04:53:30.944Z,24.03
2018-05-23T04:55:57.705Z,23.97
2018-05-23T04:58:24.043Z,23.92
2018-05-23T05:00:50.433Z,24.04
2018-05-23T05:03:17.033Z,24.11
2018-05-23T05:05:43.694Z,24.06
2018-05-23T05:08:10.450Z,24.15
2018-05-23T05:10:37.449Z,24.04
2018-05-23T05:13:04.163Z,24.14
2018-05-23T05:15:30.695Z,24.00
2018-05-23T05:17:57.226Z,24.15
2018-05-23T05:20:23.889Z,24.23
2018-05-23T05:22:50.273Z,24.17
2018-05-23T05:25:16.901Z,24.25
2018-05-23T05:27:43.491Z,24.24
2018-05-23T05:30:10.481Z,24.26
2018-05-23T05:32:37.327Z,24.20
2018-05-23T05:35:03.961Z,24.23
2018-05-23T05:37:30.551Z,24.31
2018-05-23T05:39:57.024Z,24.36
2018-05-23T05:42:23.379Z,24.41
2018-05-23T05:44:49.747Z,24.41
2018-05-23T05:47:16.147Z,24.39
2018-05-23T05:49:42.610Z,24.34
2018-05-23T05:52:09.075Z,24.46
2018-05-23T05:54:35.438Z,24.48
2018-05-23T05:57:02.010Z,24.39
2018-05-23T05:59:28.540Z,24.44
2018-05-23T06:01:55.271Z,24.53
2018-05-23T06:04:21.962Z,24.54
2018-05-23T06:06:48.490Z,24.48
2018-05-23T06:09:14.871Z,24.59
2018-05-23T06:11:41.224Z,24.53
2018-05-23T06:14:08.790Z,24.56
2018-05-23T06:16:35.627Z,24.57
2018-05-23T06:19:02.469Z,24.58
2018-05-23T06:21:28.974Z,24.59
2018-05-23T06:23:55.366Z,24.72
2018-05-23T06:26:22.134Z,24.73
2018-05-23T06:28:48.672Z,24.64
2018-05-23T06:31:15.150Z,24.83
2018-05-23T06:33:41.779Z,24.78
2018-05-23T06:36:08.329Z,24.80
2018-05-23T06:38:34.842Z,24.79
2018-05-23T06:41:01.428Z,24.92
2018-05-23T06:43:28.139Z,24.94
2018-05-23T06:45:54.728Z,24.96
2018-05-23T06:48:21.477Z,25.00
2018-05-23T06:50:48.989Z,24.99
2018-05-23T06:53:15.544Z,25.22
2018-05-23T06:55:42.115Z,25.02
2018-05-23T06:58:08.763Z,25.12
2018-05-23T07:00:35.228Z,24.98
2018-05-23T07:03:01.786Z,25.22
2018-05-23T07:05:28.537Z,25.17
2018-05-23T07:07:55.132Z,25.27
2018-05-23T07:10:21.578Z,25.20
2018-05-23T07:12:48.142Z,25.17
2018-05-23T07:15:14.791Z,25.50
2018-05-23T07:17:41.395Z,25.35
2018-05-23T07:20:07.828Z,25.03
2018-05-23T07:22:34.435Z,25.48
2018-05-23T07:25:01.380Z,25.43
2018-05-23T07:27:28.026Z,25.53
2018-05-23T07:29:54.593Z,25.45
2018-05-23T07:32:21.313Z,25.30
2018-05-23T07:34:47.971Z,25.57
2018-05-23T07:37:14.438Z,25.61
2018-05-23T07:39:41.154Z,25.66
2018-05-23T07:42:07.929Z,25.55
2018-05-23T07:44:34.515Z,25.38
2018-05-23T07:47:01.167Z,25.48
2018-05-23T07:49:27.739Z,25.40
2018-05-23T07:51:54.222Z,25.48
2018-05-23T07:54:20.829Z,25.47
2018-05-23T07:56:47.455Z,25.50
2018-05-23T07:59:14.228Z,25.44
2018-05-23T08:01:41.179Z,25.57
2018-05-23T08:04:08.168Z,25.59
2018-05-23T08:06:34.957Z,25.68
2018-05-23T08:09:02.484Z,25.80
2018-05-23T08:11:29.004Z,25.70
2018-05-23T08:13:55.468Z,25.62
2018-05-23T08:16:21.831Z,25.87
2018-05-23T08:18:48.645Z,25.93
2018-05-23T08:21:15.428Z,25.77
2018-05-23T08:23:41.891Z,25.81
2018-05-23T08:26:08.406Z,25.80
2018-05-23T08:28:34.984Z,25.87
2018-05-23T08:31:02.692Z,25.79
2018-05-23T08:33:29.550Z,25.77
2018-05-23T08:35:57.142Z,25.87
2018-05-23T08:38:23.958Z,25.70
2018-05-23T08:43:29.571Z,25.86
2018-05-23T08:45:56.635Z,25.56
2018-05-23T08:48:23.369Z,25.56
2018-05-23T08:50:50.403Z,25.81
2018-05-23T08:53:17.069Z,25.63
2018-05-23T08:55:43.536Z,25.56
2018-05-23T08:58:10.064Z,25.71
2018-05-23T09:00:37.891Z,25.67
2018-05-23T09:03:04.638Z,25.61
2018-05-23T09:05:31.195Z,25.73
2018-05-23T09:07:57.687Z,25.67
2018-05-23T09:10:24.213Z,25.44
2018-05-23T09:12:50.628Z,25.53
2018-05-23T09:15:17.061Z,25.59
2018-05-23T09:17:43.607Z,25.52
2018-05-23T09:20:10.076Z,25.61
2018-05-23T09:22:36.716Z,25.51
2018-05-23T09:25:03.394Z,25.77
2018-05-23T09:27:29.811Z,25.80
2018-05-23T09:29:57.320Z,25.64
2018-05-23T09:32:23.886Z,25.78
2018-05-23T09:34:50.613Z,25.70
2018-05-23T09:37:17.199Z,25.57
2018-05-23T09:39:43.748Z,25.57
2018-05-23T09:42:10.150Z,25.72
2018-05-23T09:44:37.691Z,25.47
2018-05-23T09:47:06.049Z,25.41
2018-05-23T09:49:33.016Z,25.55
2018-05-23T09:51:59.675Z,25.60
2018-05-23T09:54:26.542Z,25.76
2018-05-23T09:56:53.085Z,25.77
2018-05-23T09:59:19.647Z,25.73
2018-05-23T10:01:46.648Z,25.45
2018-05-23T10:04:13.490Z,25.82
2018-05-23T10:06:39.863Z,25.61
2018-05-23T10:09:06.342Z,25.78
2018-05-23T10:11:32.812Z,25.56
2018-05-23T10:13:59.363Z,25.64
2018-05-23T10:16:25.971Z,25.81
2018-05-23T10:18:53.223Z,25.76
2018-05-23T10:21:19.915Z,25.69
2018-05-23T10:23:47.764Z,25.85
2018-05-23T10:26:14.339Z,25.88
2018-05-23T10:28:40.933Z,25.80
2018-05-23T10:31:07.449Z,25.86
2018-05-23T10:33:34.069Z,25.79
2018-05-23T10:36:00.760Z,25.83
2018-05-23T10:38:27.203Z,25.94
2018-05-23T10:40:54.109Z,25.82
2018-05-23T10:43:20.947Z,26.12
2018-05-23T10:45:50.373Z,25.99
2018-05-23T10:48:16.753Z,25.92
2018-05-23T10:50:44.318Z,25.87
2018-05-23T10:53:11.098Z,25.94
2018-05-23T10:55:37.821Z,25.94
2018-05-23T10:58:04.457Z,26.08
2018-05-23T11:00:30.840Z,25.99
2018-05-23T11:02:57.420Z,26.11
2018-05-23T11:05:23.797Z,26.00
2018-05-23T11:07:50.212Z,25.90
2018-05-23T11:10:16.674Z,26.17
2018-05-23T11:12:43.072Z,26.09
2018-05-23T11:15:09.400Z,25.99
2018-05-23T11:17:35.910Z,26.03
2018-05-23T11:20:02.349Z,26.04
2018-05-23T11:22:29.020Z,25.87
2018-05-23T11:24:56.211Z,26.02
2018-05-23T11:27:22.997Z,26.00
2018-05-23T11:29:50.000Z,26.14
2018-05-23T11:32:16.480Z,26.13
2018-05-23T11:34:43.065Z,26.11
2018-05-23T11:37:09.772Z,26.05
2018-05-23T11:39:36.227Z,26.06
2018-05-23T11:42:02.750Z,26.10
2018-05-23T11:44:29.386Z,26.08
2018-05-23T11:46:56.236Z,26.00
2018-05-23T11:49:22.787Z,26.28
2018-05-23T11:51:49.375Z,26.20
2018-05-23T11:54:15.764Z,25.96
2018-05-23T11:56:42.320Z,26.09
2018-05-23T11:59:08.826Z,26.15
2018-05-23T12:01:35.205Z,26.25
2018-05-23T12:04:02.460Z,26.30
2018-05-23T12:06:28.832Z,26.45
2018-05-23T12:08:55.375Z,26.19
2018-05-23T12:11:21.791Z,26.15
2018-05-23T12:13:48.141Z,26.13
2018-05-23T12:16:14.503Z,26.20
2018-05-23T12:18:41.009Z,26.17
2018-05-23T12:21:07.451Z,26.06
2018-05-23T12:23:33.958Z,26.24
2018-05-23T12:26:00.368Z,26.27
2018-05-23T12:28:26.792Z,26.24
2018-05-23T12:30:53.163Z,26.32
2018-05-23T12:33:19.650Z,26.34
2018-05-23T12:35:46.025Z,26.25
2018-05-23T12:38:12.402Z,26.36
2018-05-23T12:40:38.802Z,26.14
2018-05-23T12:43:05.298Z,26.19
2018-05-23T12:45:31.682Z,26.08
2018-05-23T12:47:59.335Z,26.38
2018-05-23T12:50:26.181Z,26.23
2018-05-23T12:52:52.552Z,26.24
2018-05-23T12:55:19.051Z,26.07
2018-05-23T12:57:45.419Z,26.29
2018-05-23T13:00:11.873Z,26.07
2018-05-23T13:02:38.235Z,26.15
2018-05-23T13:05:04.685Z,26.34
2018-05-23T13:07:31.209Z,26.29
2018-05-23T13:09:57.565Z,26.20
2018-05-23T13:12:24.097Z,26.22
2018-05-23T13:14:50.405Z,26.26
2018-05-23T13:17:16.783Z,26.16
2018-05-23T13:19:43.290Z,26.15
2018-05-23T13:22:09.686Z,26.19
2018-05-23T13:24:36.196Z,26.09
2018-05-23T13:27:02.659Z,26.19
2018-05-23T13:29:29.119Z,26.08
2018-05-23T13:31:55.502Z,26.10
2018-05-23T13:34:21.857Z,26.10
2018-05-23T13:36:48.213Z,26.22
2018-05-23T13:39:14.566Z,26.23
2018-05-23T13:41:41.063Z,26.21
2018-05-23T13:44:07.503Z,26.15
2018-05-23T13:46:33.890Z,26.09
2018-05-23T13:49:00.248Z,26.08
2018-05-23T13:51:26.608Z,26.15
2018-05-23T13:53:52.937Z,26.12
2018-05-23T13:56:19.441Z,26.08
2018-05-23T13:58:45.825Z,26.09
2018-05-23T14:01:12.166Z,26.10
2018-05-23T14:03:38.612Z,26.16
2018-05-23T14:06:06.082Z,26.00
2018-05-23T14:08:32.579Z,26.02
2018-05-23T14:10:58.948Z,26.03
2018-05-23T14:13:25.340Z,26.03
2018-05-23T14:15:51.684Z,25.92
2018-05-23T14:18:18.008Z,26.07
2018-05-23T14:20:44.400Z,25.92
2018-05-23T14:23:10.925Z,25.78
2018-05-23T14:25:37.248Z,25.88
2018-05-23T14:28:03.702Z,25.89
2018-05-23T14:30:30.070Z,25.78
2018-05-23T14:32:56.630Z,25.96
2018-05-23T14:35:22.964Z,25.90
2018-05-23T14:37:49.329Z,25.79
2018-05-23T14:40:15.692Z,25.87
2018-05-23T14:42:42.038Z,25.95
2018-05-23T14:45:08.577Z,25.81
2018-05-23T14:47:34.945Z,25.85
2018-05-23T14:50:01.388Z,25.80
2018-05-23T14:52:27.702Z,25.87
2018-05-23T14:54:54.130Z,25.76
2018-05-23T14:57:20.501Z,25.90
2018-05-23T14:59:46.942Z,25.96
2018-05-23T15:02:13.410Z,25.82
2018-05-23T15:04:39.930Z,25.80
2018-05-23T15:07:06.307Z,25.80
2018-05-23T15:09:32.896Z,25.62
2018-05-23T15:11:59.479Z,25.59
2018-05-23T15:14:25.867Z,25.71
2018-05-23T15:16:52.204Z,25.59
2018-05-23T15:19:18.541Z,25.60
2018-05-23T15:21:45.568Z,25.73
2018-05-23T15:24:11.917Z,25.63
2018-05-23T15:26:38.322Z,25.66
2018-05-23T15:29:05.318Z,25.61
2018-05-23T15:31:32.269Z,25.48
2018-05-23T15:33:58.912Z,25.45
2018-05-23T15:36:25.256Z,25.46
2018-05-23T15:38:51.645Z,25.47
2018-05-23T15:41:18.029Z,25.38
2018-05-23T15:43:44.361Z,25.45
2018-05-23T15:46:10.733Z,25.32
2018-05-23T15:48:37.242Z,25.32
2018-05-23T15:51:03.625Z,25.50
2018-05-23T15:53:30.038Z,25.33
2018-05-23T15:55:56.388Z,25.44
2018-05-23T15:58:22.734Z,25.37
2018-05-23T16:00:49.076Z,25.33
2018-05-23T16:03:15.436Z,25.29
2018-05-23T16:05:41.884Z,25.42
2018-05-23T16:08:08.316Z,25.23
2018-05-23T16:10:34.677Z,25.14
2018-05-23T16:13:01.097Z,25.20
2018-05-23T16:15:31.487Z,25.17
2018-05-23T16:17:58.206Z,25.22
2018-05-23T16:20:24.616Z,25.22
2018-05-23T16:22:50.954Z,25.29
2018-05-23T16:25:17.309Z,25.23
2018-05-23T16:27:43.706Z,25.20
2018-05-23T16:30:10.198Z,25.29
2018-05-23T16:32:36.597Z,25.15
2018-05-23T16:35:03.221Z,25.16
2018-05-23T16:37:29.605Z,25.02
2018-05-23T16:40:03.692Z,25.06
2018-05-23T16:42:30.085Z,24.90
2018-05-23T16:44:56.419Z,24.96
2018-05-23T16:47:31.357Z,25.02
2018-05-23T16:49:57.797Z,24.97
2018-05-23T16:52:24.150Z,24.99
2018-05-23T16:54:50.615Z,24.92
2018-05-23T16:57:17.091Z,25.03
2018-05-23T17:09:57.244Z,24.95
2018-05-23T17:12:23.615Z,25.05
2018-05-23T17:14:50.006Z,24.95
2018-05-23T17:17:17.935Z,25.07
2018-05-23T17:35:27.976Z,25.15
2018-05-23T17:37:54.293Z,25.11
2018-05-23T17:56:03.981Z,25.00
2018-05-23T17:58:30.426Z,25.01
2018-05-23T18:16:41.402Z,25.01
2018-05-23T18:37:31.227Z,24.88
2018-05-23T18:52:49.157Z,24.88
2018-05-23T18:57:46.902Z,24.87
2018-05-23T19:18:35.008Z,24.88
2018-05-23T19:21:01.336Z,24.84
2018-05-23T19:23:27.652Z,24.86
2018-05-23T19:25:53.974Z,24.86
2018-05-23T19:28:20.434Z,24.89
2018-05-23T19:30:47.050Z,24.77
2018-05-23T19:33:13.502Z,24.77
2018-05-23T19:35:39.982Z,24.83
2018-05-23T19:38:06.388Z,24.87
2018-05-23T19:40:33.052Z,24.75
2018-05-23T19:42:59.436Z,24.86
2018-05-23T19:45:25.895Z,24.85
2018-05-23T19:47:52.212Z,24.84
2018-05-23T19:50:18.660Z,24.77
2018-05-23T19:52:45.212Z,24.79
2018-05-23T19:55:11.487Z,24.85
2018-05-23T19:57:37.829Z,24.70
2018-05-23T20:00:04.262Z,24.72
2018-05-23T20:02:30.809Z,24.64
2018-05-23T20:04:57.187Z,24.71
2018-05-23T20:07:23.540Z,24.71
2018-05-23T20:09:49.905Z,24.70
2018-05-23T20:12:16.305Z,24.68
2018-05-23T20:14:42.616Z,24.66
2018-05-23T20:17:08.981Z,24.63
2018-05-23T20:19:35.314Z,24.61
2018-05-23T20:22:01.689Z,24.64
2018-05-23T20:24:28.018Z,24.55
2018-05-23T20:26:54.327Z,24.60
2018-05-23T20:32:00.208Z,24.62
2018-05-23T20:34:26.590Z,24.58
2018-05-23T20:36:52.919Z,24.57
2018-05-23T20:39:19.239Z,24.56
2018-05-23T20:41:45.558Z,24.53
2018-05-23T20:44:11.892Z,24.55
2018-05-23T20:46:38.223Z,24.55
2018-05-23T20:49:04.548Z,24.51
2018-05-23T20:51:30.885Z,24.46
2018-05-23T20:53:57.240Z,24.47
2018-05-23T20:56:23.613Z,24.52
2018-05-23T20:58:50.014Z,24.45
2018-05-23T21:01:16.371Z,24.41
2018-05-23T21:03:42.708Z,24.47
2018-05-23T21:06:09.083Z,24.45
2018-05-23T21:08:35.449Z,24.30
2018-05-23T21:11:01.826Z,24.42
2018-05-23T21:13:28.152Z,24.36
2018-05-23T21:15:54.468Z,24.46
2018-05-23T21:18:21.033Z,24.42
2018-05-23T21:20:48.524Z,24.44
2018-05-23T21:23:15.091Z,24.41
2018-05-23T21:28:13.904Z,24.39
2018-05-23T21:30:48.044Z,24.40
2018-05-23T21:33:14.582Z,24.39
2018-05-23T21:35:40.945Z,24.38
2018-05-23T21:38:07.408Z,24.40
2018-05-23T21:40:34.847Z,24.37
2018-05-23T21:43:01.295Z,24.30
2018-05-23T21:45:27.619Z,24.31
2018-05-23T21:47:53.948Z,24.33
2018-05-23T21:50:22.050Z,24.30
2018-05-23T21:52:48.383Z,24.29
2018-05-23T21:55:14.702Z,24.30
2018-05-23T21:57:41.020Z,24.33
2018-05-23T22:00:07.347Z,24.19
2018-05-23T22:02:33.856Z,24.25
2018-05-23T22:05:01.023Z,24.26
2018-05-23T22:07:27.375Z,24.26
2018-05-23T22:10:01.357Z,24.24
2018-05-23T22:12:27.735Z,24.28
2018-05-23T22:14:54.053Z,24.25
2018-05-23T22:17:20.643Z,24.25
2018-05-23T22:19:47.209Z,24.27
2018-05-23T22:22:13.561Z,24.23
2018-05-23T22:24:39.978Z,24.25
2018-05-23T22:27:06.331Z,24.25
2018-05-23T22:29:32.690Z,24.19
2018-05-23T22:31:59.009Z,24.17
2018-05-23T22:34:25.408Z,24.18
2018-05-23T22:36:51.752Z,24.21
2018-05-23T22:39:27.035Z,24.09
2018-05-23T22:41:53.383Z,24.15
2018-05-23T22:44:19.801Z,24.22
2018-05-23T22:46:46.129Z,24.22
2018-05-23T22:49:12.595Z,24.18
2018-05-23T22:51:38.932Z,24.08
2018-05-23T22:54:05.312Z,24.11
2018-05-23T22:56:31.639Z,24.16
2018-05-23T22:58:58.277Z,24.20
2018-05-23T23:01:24.598Z,24.12
2018-05-23T23:03:51.007Z,24.14
2018-05-23T23:06:17.619Z,24.10
2018-05-23T23:08:44.020Z,24.16
2018-05-23T23:11:10.344Z,24.16
2018-05-23T23:13:36.664Z,24.16
2018-05-23T23:16:02.993Z,24.14
2018-05-23T23:18:29.450Z,24.01
2018-05-23T23:20:55.811Z,24.09
2018-05-23T23:23:22.200Z,24.11
2018-05-23T23:25:48.726Z,24.07
2018-05-23T23:28:15.368Z,24.07
2018-05-23T23:30:49.715Z,24.05
2018-05-23T23:33:16.133Z,24.07
2018-05-23T23:35:42.569Z,24.00
2018-05-23T23:38:08.941Z,24.08
2018-05-23T23:40:35.356Z,24.10
2018-05-23T23:43:01.755Z,24.09
2018-05-23T23:45:28.233Z,24.10
2018-05-23T23:47:54.562Z,24.10
2018-05-23T23:50:20.879Z,24.05
2018-05-23T23:52:47.268Z,24.05
2018-05-23T23:55:13.756Z,24.08
2018-05-23T23:57:40.219Z,24.10
